Time;durP1;ratioP1;P1;durP2;ratioP2;P2;SDS_P1;SDS_P2;PMS_P1;PMS_P2;Temp;Humidity;BMP_temperature;BMP_pressure;BME280_temperature;BME280_humidity;BME280_pressure;Samples;Min_cycle;Max_cycle;Signal;HPM_P1;HPM_P2
2021/01/15 00:01:25;;;;;;;12.13;6.50;;;;;;;-4.22;89.05;99731.32;1748934;81;21144;-62
2021/01/15 00:03:52;;;;;;;12.45;6.20;;;;;;;-4.21;89.03;99730.47;1728176;81;21586;-63
2021/01/15 00:06:25;;;;;;;10.55;6.05;;;;;;;-4.30;88.63;99738.86;1735268;80;21194;-63
2021/01/15 00:08:54;;;;;;;9.10;5.85;;;;;;;-4.38;88.50;99731.11;1741976;80;21081;-63
2021/01/15 00:11:30;;;;;;;11.93;6.55;;;;;;;-4.45;88.52;99728.06;1765671;80;20984;-63
2021/01/15 00:14:00;;;;;;;15.25;6.55;;;;;;;-4.49;88.64;99726.29;1770389;80;21060;-63
2021/01/15 00:16:33;;;;;;;13.90;7.33;;;;;;;-4.52;88.65;99732.20;1747792;80;21621;-63
2021/01/15 00:19:02;;;;;;;14.63;7.62;;;;;;;-4.47;88.85;99733.55;1756570;80;21416;-62
2021/01/15 00:21:33;;;;;;;12.43;7.22;;;;;;;-4.44;88.82;99726.36;1748177;80;21152;-63
2021/01/15 00:24:03;;;;;;;12.18;7.58;;;;;;;-4.43;88.91;99723.81;1747568;80;20953;-62
2021/01/15 00:26:32;;;;;;;10.40;7.28;;;;;;;-4.41;88.91;99723.84;1757066;80;21111;-62
2021/01/15 00:28:59;;;;;;;13.22;6.80;;;;;;;-4.42;88.82;99720.45;1767292;80;21004;-62
2021/01/15 00:31:31;;;;;;;11.97;6.83;;;;;;;-4.45;88.76;99731.88;1776013;80;21615;-62
2021/01/15 00:33:59;;;;;;;12.20;6.90;;;;;;;-4.48;88.73;99724.20;1767904;80;21234;-63
2021/01/15 00:36:26;;;;;;;8.85;5.78;;;;;;;-4.49;88.81;99731.38;1767446;80;21574;-63
2021/01/15 00:38:53;;;;;;;10.80;6.22;;;;;;;-4.48;88.79;99733.12;1768274;79;21103;-62
2021/01/15 00:41:20;;;;;;;10.88;6.62;;;;;;;-4.49;88.81;99722.47;1768764;80;21190;-63
2021/01/15 00:43:47;;;;;;;12.30;6.00;;;;;;;-4.48;88.77;99735.67;1772066;80;21380;-63
2021/01/15 00:46:32;;;;;;;11.38;6.67;;;;;;;-4.45;88.91;99729.33;1769071;80;21127;-62
2021/01/15 00:49:07;;;;;;;9.65;5.53;;;;;;;-4.42;88.98;99725.55;1762231;80;21234;-62
2021/01/15 00:51:36;;;;;;;11.53;5.87;;;;;;;-4.37;88.98;99734.12;1712533;82;21024;-62
2021/01/15 00:54:05;;;;;;;8.55;5.50;;;;;;;-4.39;88.79;99737.05;1734143;81;21195;-63
2021/01/15 00:56:32;;;;;;;13.25;6.97;;;;;;;-4.33;88.95;99733.30;1752598;79;21210;-62
2021/01/15 00:58:59;;;;;;;9.78;5.95;;;;;;;-4.27;89.00;99741.02;1748098;81;21610;-63
2021/01/15 01:01:26;;;;;;;11.90;6.45;;;;;;;-4.23;89.06;99740.64;1763644;78;21043;-62
2021/01/15 01:03:53;;;;;;;10.50;5.80;;;;;;;-4.23;88.93;99732.14;1769524;81;28239;-63
2021/01/15 01:06:22;;;;;;;8.35;5.17;;;;;;;-4.24;89.00;99730.02;1757583;81;21197;-62
2021/01/15 01:08:50;;;;;;;11.75;5.62;;;;;;;-4.22;88.92;99732.59;1754868;81;21254;-63
2021/01/15 01:11:22;;;;;;;10.75;6.00;;;;;;;-4.22;88.82;99737.70;1747659;81;21035;-62
2021/01/15 01:13:52;;;;;;;10.08;5.85;;;;;;;-4.20;88.87;99730.90;1757936;81;21016;-63
2021/01/15 01:16:21;;;;;;;11.65;6.05;;;;;;;-4.16;88.96;99735.22;1749251;78;21064;-62
2021/01/15 01:18:49;;;;;;;11.90;5.95;;;;;;;-4.12;88.93;99734.40;1748554;79;21218;-63
2021/01/15 01:21:17;;;;;;;13.60;7.22;;;;;;;-4.11;88.88;99741.23;1767512;78;22196;-63
2021/01/15 01:23:44;;;;;;;;;;;;;;;-4.10;88.86;99742.94;1752125;79;21590;-62
2021/01/15 01:26:13;;;;;;;10.72;6.05;;;;;;;-4.07;88.76;99745.52;1756107;79;20287;-63
2021/01/15 01:28:42;;;;;;;9.38;5.62;;;;;;;-4.07;88.79;99741.69;1749284;79;21212;-65
2021/01/15 01:31:15;;;;;;;11.25;5.67;;;;;;;-4.07;88.85;99740.42;1740041;79;21018;-63
2021/01/15 01:33:44;;;;;;;11.05;6.17;;;;;;;-4.06;88.76;99743.42;1746148;79;21204;-62
2021/01/15 01:36:12;;;;;;;11.22;5.70;;;;;;;-4.05;88.92;99741.30;1736676;79;21072;-63
2021/01/15 01:38:41;;;;;;;9.00;5.92;;;;;;;-3.98;89.11;99743.06;1753784;79;20970;-63
2021/01/15 01:41:09;;;;;;;10.53;5.67;;;;;;;-3.92;89.07;99744.44;1755647;79;20994;-63
2021/01/15 01:43:37;;;;;;;10.25;5.92;;;;;;;-3.91;88.88;99738.91;1746765;79;21163;-63
2021/01/15 01:46:06;;;;;;;10.18;6.10;;;;;;;-3.96;88.55;99751.60;1748937;79;22132;-63
2021/01/15 01:48:38;;;;;;;11.12;6.03;;;;;;;-4.04;88.55;99744.28;1752740;79;21163;-62
2021/01/15 01:51:07;;;;;;;9.83;6.30;;;;;;;-4.05;88.69;99743.85;1747090;79;21587;-63
2021/01/15 01:53:37;;;;;;;9.63;6.87;;;;;;;-4.00;89.03;99749.87;1751987;79;21128;-63
2021/01/15 01:58:43;;;;;;;10.45;6.45;;;;;;;-3.91;88.90;99748.69;1821714;76;22750;-61
2021/01/15 02:01:10;;;;;;;;;;;;;;;-3.98;88.77;99744.34;1795519;78;21008;-62
2021/01/15 02:03:37;;;;;;;10.40;6.42;;;;;;;-4.01;88.68;99744.31;1794097;78;21505;-62
2021/01/15 02:06:05;;;;;;;12.88;6.75;;;;;;;-4.05;88.69;99743.85;1794689;78;20984;-62
2021/01/15 02:08:33;;;;;;;11.50;6.65;;;;;;;-4.07;88.73;99750.62;1794448;78;21008;-62
2021/01/15 02:11:17;;;;;;;13.05;7.10;;;;;;;-4.05;89.04;99733.65;1799884;78;24108;-62
2021/01/15 02:14:10;;;;;;;10.40;6.75;;;;;;;-4.05;89.04;99733.65;1804212;78;21051;-64
2021/01/15 02:16:38;;;;;;;13.05;7.95;;;;;;;-4.03;88.94;99721.78;1798081;77;22268;-62
2021/01/15 02:19:28;;;;;;;;;;;;;;;-4.04;88.97;99726.42;1793041;78;21075;-62
2021/01/15 02:22:35;;;;;;;15.88;8.28;;;;;;;-4.09;88.82;99723.84;1797404;78;20229;-61
2021/01/15 02:25:20;;;;;;;10.18;6.75;;;;;;;-4.05;89.11;99734.92;1795886;78;20976;-62
2021/01/15 02:28:13;;;;;;;13.78;7.08;;;;;;;-4.07;89.01;99731.06;1790042;78;21071;-62
2021/01/15 02:31:22;;;;;;;10.95;6.42;;;;;;;-3.98;89.11;99737.12;1841212;77;22461;-62
2021/01/15 02:34:10;;;;;;;12.33;7.28;;;;;;;-4.02;89.12;99740.06;1803262;78;20961;-61
2021/01/15 02:37:08;;;;;;;10.88;6.72;;;;;;;-4.08;88.82;99741.27;1812353;77;21654;-61
2021/01/15 02:39:52;;;;;;;14.15;10.80;;;;;;;-4.10;88.97;99739.11;1798620;78;21547;-62
2021/01/15 02:42:20;;;;;;;10.63;7.60;;;;;;;-4.06;89.26;99746.83;1817919;77;21040;-63
2021/01/15 02:44:51;;;;;;;11.88;8.15;;;;;;;-4.03;89.17;99739.63;1797766;78;21024;-62
2021/01/15 02:47:25;;;;;;;11.60;7.40;;;;;;;-4.08;88.90;99751.47;1803068;78;21507;-61
2021/01/15 02:49:54;;;;;;;9.58;6.65;;;;;;;-4.17;88.76;99743.68;1800493;77;21204;-61
2021/01/15 02:52:21;;;;;;;16.67;8.08;;;;;;;-4.17;89.06;99739.86;1753640;80;21074;-61
2021/01/15 02:54:48;;;;;;;14.15;7.80;;;;;;;-4.18;89.07;99741.98;1766177;80;21026;-62
2021/01/15 02:57:16;;;;;;;13.03;7.58;;;;;;;-4.12;89.25;99736.95;1771012;80;21089;-61
2021/01/15 02:59:42;;;;;;;12.00;8.18;;;;;;;-4.10;89.18;99740.38;1764378;80;21597;-61
2021/01/15 03:02:33;;;;;;;12.37;7.40;;;;;;;-4.11;89.18;99738.69;1778778;80;21205;-62
2021/01/15 03:05:10;;;;;;;13.18;8.15;;;;;;;-4.11;89.15;99739.53;1771052;79;21633;-61
2021/01/15 03:07:39;;;;;;;10.48;7.30;;;;;;;-4.13;89.11;99729.72;1769609;78;21641;-62
2021/01/15 03:10:08;;;;;;;12.60;8.03;;;;;;;-4.16;89.00;99722.47;1761737;78;21575;-62
2021/01/15 03:12:37;;;;;;;14.90;8.20;;;;;;;-4.20;89.05;99718.15;1769630;80;21069;-61
2021/01/15 03:15:08;;;;;;;11.15;8.30;;;;;;;-4.20;89.11;99715.60;1777307;78;21622;-62
2021/01/15 03:17:40;;;;;;;13.62;8.68;;;;;;;-4.20;89.13;99720.30;1775067;80;21060;-62
2021/01/15 03:20:10;;;;;;;16.25;8.93;;;;;;;-4.26;88.96;99721.48;1762514;80;21138;-61
2021/01/15 03:22:44;;;;;;;15.72;8.70;;;;;;;-4.30;88.94;99716.77;1765830;79;21012;-63
2021/01/15 03:25:12;;;;;;;12.20;8.45;;;;;;;-4.35;89.07;99704.38;1758944;80;21172;-63
2021/01/15 03:27:55;;;;;;;11.85;8.83;;;;;;;-4.41;88.95;99710.69;1763841;80;21261;-63
2021/01/15 03:30:26;;;;;;;15.38;9.85;;;;;;;-4.47;88.88;99711.88;1742960;81;21206;-63
2021/01/15 03:33:02;;;;;;;12.50;8.15;;;;;;;-4.52;89.03;99705.44;1768521;78;21021;-62
2021/01/15 03:35:31;;;;;;;14.60;8.78;;;;;;;-4.57;88.99;99719.80;1734803;81;21636;-62
2021/01/15 03:38:11;;;;;;;13.15;7.30;;;;;;;-4.63;88.96;99717.18;1764167;78;21576;-61
2021/01/15 03:40:42;;;;;;;14.93;8.75;;;;;;;-4.69;88.79;99727.72;1763044;78;21653;-61
2021/01/15 03:43:18;;;;;;;13.45;8.90;;;;;;;-4.82;88.73;99723.70;1769002;80;20986;-62
2021/01/15 03:45:49;;;;;;;14.00;8.90;;;;;;;-4.88;88.84;99731.67;1768490;80;22723;-62
2021/01/15 03:48:21;;;;;;;16.93;8.05;;;;;;;-4.85;89.11;99724.92;1775222;78;21098;-62
2021/01/15 03:50:49;;;;;;;12.25;8.28;;;;;;;-4.87;89.03;99741.90;1755705;80;21008;-62
2021/01/15 03:53:17;;;;;;;16.48;8.83;;;;;;;-4.90;89.05;99736.77;1754349;80;21211;-62
2021/01/15 03:55:45;;;;;;;16.77;10.43;;;;;;;-4.91;89.20;99735.03;1767914;78;22163;-61
2021/01/15 03:58:12;;;;;;;16.77;8.48;;;;;;;-4.86;89.46;99735.11;1769529;80;20996;-62
2021/01/15 04:00:39;;;;;;;12.28;8.58;;;;;;;-4.78;89.58;99740.75;1760690;80;21051;-61
2021/01/15 04:03:07;;;;;;;14.50;9.58;;;;;;;-4.75;89.38;99733.16;1780596;78;21024;-62
2021/01/15 04:05:35;;;;;;;16.02;8.53;;;;;;;-4.72;89.46;99733.20;1732960;81;21637;-62
2021/01/15 04:08:03;;;;;;;14.87;8.68;;;;;;;-4.65;89.50;99725.64;1765808;80;21014;-61
2021/01/15 04:10:30;;;;;;;13.88;8.60;;;;;;;-4.58;89.58;99728.72;1773519;80;21136;-62
2021/01/15 04:12:57;;;;;;;13.45;8.45;;;;;;;-4.50;89.71;99722.89;1764376;80;21102;-61
2021/01/15 04:15:24;;;;;;;14.23;9.03;;;;;;;-4.45;89.47;99731.00;1764417;80;21099;-62
2021/01/15 04:17:52;;;;;;;12.00;8.00;;;;;;;-4.43;89.50;99721.27;1772363;80;22145;-61
2021/01/15 04:20:19;;;;;;;16.87;7.85;;;;;;;-4.40;89.41;99722.58;1732961;80;21212;-62
2021/01/15 04:22:48;;;;;;;9.68;6.85;;;;;;;-4.35;89.53;99719.67;1755848;80;21613;-62
2021/01/15 04:25:15;;;;;;;9.65;6.75;;;;;;;-4.30;89.54;99718.05;1759927;80;21192;-61
2021/01/15 04:27:44;;;;;;;9.15;5.87;;;;;;;-4.27;89.47;99717.23;1771207;79;21004;-62
2021/01/15 04:30:14;;;;;;;9.60;5.90;;;;;;;-4.24;89.51;99718.97;1765664;79;21269;-61
2021/01/15 04:32:47;;;;;;;10.60;6.08;;;;;;;-4.22;89.56;99712.20;1772172;79;21047;-63
2021/01/15 04:35:16;;;;;;;8.68;5.45;;;;;;;-4.18;89.56;99712.66;1773946;79;20994;-62
2021/01/15 04:37:44;;;;;;;10.10;5.85;;;;;;;-4.18;89.42;99713.94;1740004;80;21179;-61
2021/01/15 04:40:13;;;;;;;9.45;5.75;;;;;;;-4.18;89.39;99701.19;1767694;80;21135;-61
2021/01/15 04:42:46;;;;;;;7.17;5.00;;;;;;;-4.19;89.37;99702.03;1770204;79;21220;-61
2021/01/15 04:45:16;;;;;;;11.88;5.25;;;;;;;-4.22;89.38;99704.13;1769831;79;21050;-62
2021/01/15 04:47:46;;;;;;;9.10;5.28;;;;;;;-4.25;89.44;99707.92;1778225;79;20996;-61
2021/01/15 04:50:17;;;;;;;6.60;4.65;;;;;;;-4.24;89.47;99708.77;1763846;79;21004;-61
2021/01/15 04:52:52;;;;;;;10.00;5.45;;;;;;;-4.23;89.51;99702.81;1775956;78;21547;-61
2021/01/15 04:55:25;;;;;;;10.13;5.53;;;;;;;-4.22;89.44;99702.00;1791276;78;21198;-61
2021/01/15 04:57:55;;;;;;;11.50;5.08;;;;;;;-4.28;89.30;99698.53;1778459;79;21114;-61
2021/01/15 05:00:26;;;;;;;7.35;4.12;;;;;;;-4.30;89.43;99702.75;1773847;79;21030;-61
2021/01/15 05:02:55;;;;;;;8.88;5.42;;;;;;;-4.36;89.36;99697.58;1771785;79;20968;-61
2021/01/15 05:05:27;;;;;;;8.53;5.53;;;;;;;-4.40;89.40;99706.02;1772330;79;21648;-61
2021/01/15 05:08:15;;;;;;;9.28;5.25;;;;;;;-4.43;89.46;99705.97;1766538;79;21220;-61
2021/01/15 05:10:45;;;;;;;8.90;4.92;;;;;;;-4.45;89.46;99705.13;1760080;79;21650;-61
2021/01/15 05:13:16;;;;;;;7.45;5.15;;;;;;;-4.45;89.49;99706.40;1735057;81;21127;-61
2021/01/15 05:15:48;;;;;;;7.95;5.08;;;;;;;-4.48;89.43;99699.98;1776646;79;21557;-61
2021/01/15 05:18:20;;;;;;;5.97;4.22;;;;;;;-4.51;89.39;99697.38;1779973;79;21054;-61
2021/01/15 05:20:49;;;;;;;7.67;4.72;;;;;;;-4.54;89.46;99702.43;1766142;79;21616;-62
2021/01/15 05:23:17;;;;;;;7.62;4.53;;;;;;;-4.55;89.54;99698.18;1779780;79;21580;-61
2021/01/15 05:25:48;;;;;;;6.60;4.58;;;;;;;-4.54;89.54;99715.17;1776193;79;21023;-61
2021/01/15 05:28:17;;;;;;;7.35;4.70;;;;;;;-4.52;89.66;99710.96;1778255;79;20963;-61
2021/01/15 05:30:45;;;;;;;8.75;5.67;;;;;;;-4.49;89.58;99705.91;1767971;78;21119;-61
2021/01/15 05:33:17;;;;;;;11.20;5.25;;;;;;;-4.45;89.61;99701.30;1759921;80;21651;-61
2021/01/15 05:35:51;;;;;;;8.10;5.22;;;;;;;-4.40;89.60;99702.19;1763864;80;21103;-62
2021/01/15 05:38:21;;;;;;;11.45;6.28;;;;;;;-4.36;89.62;99710.33;1760501;80;21062;-63
2021/01/15 05:40:56;;;;;;;10.45;5.60;;;;;;;-4.34;89.60;99708.66;1766864;78;21051;-63
2021/01/15 05:43:30;;;;;;;11.43;6.53;;;;;;;-4.32;89.75;99709.52;1777302;80;21066;-62
2021/01/15 05:46:21;;;;;;;7.67;4.58;;;;;;;-4.31;89.74;99708.70;1738587;80;21215;-62
2021/01/15 05:48:53;;;;;;;6.58;4.83;;;;;;;-4.30;89.84;99705.30;1765222;80;21057;-63
2021/01/15 05:51:29;;;;;;;11.90;4.78;;;;;;;-4.28;89.93;99699.81;1760310;80;22243;-64
2021/01/15 05:54:02;;;;;;;6.63;4.23;;;;;;;-4.24;90.07;99707.06;1767712;80;21078;-63
2021/01/15 05:56:42;;;;;;;8.05;4.50;;;;;;;-4.20;90.06;99696.48;1769764;80;21004;-61
2021/01/15 05:59:14;;;;;;;6.97;4.33;;;;;;;-4.18;90.09;99696.09;1755039;80;21212;-61
2021/01/15 06:01:54;;;;;;;7.92;5.15;;;;;;;-4.11;90.15;99692.78;1762414;80;21104;-61
2021/01/15 06:04:38;;;;;;;5.53;3.85;;;;;;;-4.06;90.37;99704.75;1740305;81;20992;-62
2021/01/15 06:07:17;;;;;;;6.03;3.33;;;;;;;-4.04;90.16;99689.45;1759187;80;21062;-61
2021/01/15 06:09:48;;;;;;;7.20;4.00;;;;;;;-4.01;90.17;99695.85;1774620;78;21001;-63
2021/01/15 06:12:19;;;;;;;6.12;4.50;;;;;;;-3.98;90.22;99698.43;1730126;78;21212;-64
2021/01/15 06:14:58;;;;;;;5.95;4.03;;;;;;;-3.98;90.25;99696.30;1755268;80;21017;-64
2021/01/15 06:17:26;;;;;;;7.37;3.90;;;;;;;-3.95;90.17;99702.32;1748378;80;21011;-64
2021/01/15 06:22:49;;;;;;;7.80;4.05;;;;;;;-3.86;90.41;99694.76;1827226;76;22310;-62
2021/01/15 06:25:32;;;;;;;4.90;3.42;;;;;;;-3.87;90.31;99703.23;1812312;77;21146;-62
2021/01/15 06:28:03;;;;;;;5.97;3.25;;;;;;;-3.85;90.29;99706.66;1790781;78;21189;-62
2021/01/15 06:30:33;;;;;;;4.47;3.40;;;;;;;-3.79;90.42;99703.74;1800589;77;21000;-62
2021/01/15 06:33:10;;;;;;;4.03;3.27;;;;;;;-3.76;90.34;99705.05;1789858;78;21067;-62
2021/01/15 06:35:40;;;;;;;4.73;3.33;;;;;;;-3.72;90.40;99706.81;1790846;78;21558;-62
2021/01/15 06:38:14;;;;;;;9.23;3.77;;;;;;;-3.68;90.47;99716.19;1793235;78;21278;-63
2021/01/15 06:40:50;;;;;;;5.83;3.87;;;;;;;-3.63;90.57;99718.37;1797747;78;21206;-62
2021/01/15 06:43:29;;;;;;;7.87;4.10;;;;;;;-3.60;90.57;99719.67;1798897;77;21075;-62
2021/01/15 06:46:02;;;;;;;7.42;4.70;;;;;;;-3.57;90.50;99729.91;1799123;78;21538;-62
2021/01/15 06:48:39;;;;;;;9.88;5.20;;;;;;;-3.54;90.47;99729.09;1794782;78;21118;-62
2021/01/15 06:51:07;;;;;;;10.50;5.25;;;;;;;-3.52;90.40;99730.82;1781672;78;21226;-62
2021/01/15 06:53:44;;;;;;;9.55;5.33;;;;;;;-3.52;90.50;99733.38;1792838;78;21257;-62
2021/01/15 06:56:19;;;;;;;6.95;4.65;;;;;;;-3.50;90.67;99744.45;1796468;77;21040;-62
2021/01/15 06:58:46;;;;;;;7.70;4.80;;;;;;;-3.47;90.63;99739.38;1796601;78;21198;-62
2021/01/15 07:01:24;;;;;;;8.35;4.10;;;;;;;-3.45;90.54;99742.78;1780136;77;21019;-63
2021/01/15 07:04:12;;;;;;;10.15;4.20;;;;;;;-3.42;90.47;99745.39;1785748;78;21123;-62
2021/01/15 07:06:50;;;;;;;9.95;4.20;;;;;;;-3.37;90.24;99752.65;1797258;78;21190;-62
2021/01/15 07:09:19;;;;;;;8.73;4.58;;;;;;;-3.29;90.20;99758.27;1794416;78;21632;-62
2021/01/15 07:11:48;;;;;;;5.17;3.33;;;;;;;-3.22;90.17;99760.01;1804577;78;21111;-62
2021/01/15 07:14:19;;;;;;;6.75;3.60;;;;;;;-3.17;89.78;99750.70;1793041;77;21194;-62
2021/01/15 07:16:51;;;;;;;9.25;3.65;;;;;;;-3.08;90.10;99754.63;1805037;77;22784;-61
2021/01/15 07:19:19;;;;;;;6.67;3.35;;;;;;;-3.02;89.89;99767.45;1796310;77;22259;-61
2021/01/15 07:22:06;;;;;;;6.75;3.25;;;;;;;-2.95;89.99;99767.06;1805030;77;21043;-61
2021/01/15 07:24:36;;;;;;;8.88;4.03;;;;;;;-2.90;89.99;99764.55;1800888;78;21403;-61
2021/01/15 07:27:06;;;;;;;7.75;4.03;;;;;;;-2.88;89.78;99762.88;1807976;78;21019;-62
2021/01/15 07:29:38;;;;;;;7.67;4.40;;;;;;;-2.85;89.59;99760.34;1805408;78;21115;-61
2021/01/15 07:32:27;;;;;;;6.85;4.08;;;;;;;-2.84;89.48;99768.43;1802667;78;21199;-62
2021/01/15 07:35:00;;;;;;;9.40;4.47;;;;;;;-2.87;89.33;99769.69;1805831;78;21054;-62
2021/01/15 07:37:30;;;;;;;9.98;4.92;;;;;;;-2.89;89.22;99768.81;1804686;78;21012;-62
2021/01/15 07:40:29;;;;;;;11.75;4.90;;;;;;;-2.92;89.11;99775.59;1800661;77;21094;-64
2021/01/15 07:42:57;;;;;;;7.58;4.10;;;;;;;-2.95;89.18;99769.19;1741751;80;21593;-63
2021/01/15 07:45:32;;;;;;;8.85;4.28;;;;;;;-2.97;89.18;99774.73;1759704;80;21411;-63
2021/01/15 07:48:07;;;;;;;9.00;4.40;;;;;;;-2.96;88.92;99786.65;1750093;80;21256;-63
2021/01/15 07:50:45;;;;;;;11.40;6.35;;;;;;;-2.90;89.18;99785.00;1753555;80;21061;-64
2021/01/15 07:53:29;;;;;;;11.05;6.25;;;;;;;-2.84;88.77;99785.03;1750290;80;21167;-64
2021/01/15 07:56:05;;;;;;;10.18;5.30;;;;;;;-2.77;88.66;99789.37;1830633;76;22791;-63
2021/01/15 07:58:39;;;;;;;7.75;5.03;;;;;;;-2.77;88.15;99797.03;1803418;77;20956;-62
2021/01/15 08:01:16;;;;;;;9.35;3.92;;;;;;;-2.78;88.12;99795.30;1808377;77;21246;-63
2021/01/15 08:03:54;;;;;;;8.83;4.08;;;;;;;-2.81;88.20;99805.50;1867979;74;22773;-62
2021/01/15 08:06:21;;;;;;;6.90;4.30;;;;;;;-2.98;88.51;99802.37;1848312;75;21033;-63
2021/01/15 08:09:10;;;;;;;;;;;;;;;-3.06;88.81;99789.96;1840689;75;21277;-63
2021/01/15 08:11:38;;;;;;;9.20;4.20;;;;;;;-3.05;89.03;99789.14;1845118;77;20201;-63
2021/01/15 08:14:19;;;;;;;7.42;4.83;;;;;;;-3.00;89.04;99786.17;1834697;75;21022;-62
2021/01/15 08:16:48;;;;;;;8.40;4.25;;;;;;;-3.00;88.79;99790.00;1840809;75;21418;-63
2021/01/15 08:22:00;;;;;;;7.70;3.60;;;;;;;-2.90;88.28;99785.00;1872042;74;22343;-64
2021/01/15 08:24:28;;;;;;;5.58;3.37;;;;;;;-2.90;88.33;99783.72;1836243;75;20933;-63
2021/01/15 08:26:56;;;;;;;8.15;3.85;;;;;;;-2.82;88.29;99791.02;1831665;77;22562;-63
2021/01/15 08:29:28;;;;;;;10.85;4.58;;;;;;;-2.72;88.61;99795.34;1840081;77;21523;-63
2021/01/15 08:31:58;;;;;;;8.30;5.40;;;;;;;-2.67;87.40;99796.23;1843471;76;21048;-63
2021/01/15 08:34:35;;;;;;;13.53;7.28;;;;;;;-2.70;87.28;99796.22;1785113;78;21054;-62
2021/01/15 08:37:07;;;;;;;14.83;8.70;;;;;;;-2.70;86.88;99806.44;1805092;77;21085;-63
2021/01/15 08:39:49;;;;;;;18.42;8.98;;;;;;;-2.67;86.99;99807.73;1802661;78;21212;-63
2021/01/15 08:42:17;;;;;;;22.42;10.45;;;;;;;-2.66;86.19;99846.53;1797381;78;21112;-63
2021/01/15 08:44:48;;;;;;;28.40;10.80;;;;;;;-2.67;86.35;99803.91;1801844;78;20978;-63
2021/01/15 08:47:18;;;;;;;21.20;9.00;;;;;;;-2.62;86.80;99807.36;1803243;78;21143;-63
2021/01/15 08:49:55;;;;;;;10.58;6.05;;;;;;;-2.61;86.89;99808.20;1802239;78;21227;-63
2021/01/15 08:52:25;;;;;;;12.30;5.97;;;;;;;-2.59;86.13;99813.77;1800163;77;24652;-63
2021/01/15 08:54:56;;;;;;;13.08;6.53;;;;;;;-2.56;86.82;99816.34;1793475;78;21084;-64
2021/01/15 08:57:30;;;;;;;10.70;6.17;;;;;;;-2.52;84.82;99816.81;1779717;79;21041;-63
2021/01/15 09:00:14;;;;;;;13.40;6.92;;;;;;;-2.42;84.71;99824.55;1775816;78;21025;-63
2021/01/15 09:02:43;;;;;;;14.83;6.80;;;;;;;-2.34;85.26;99822.89;1772886;78;21559;-63
2021/01/15 09:05:16;;;;;;;14.47;7.67;;;;;;;-2.26;85.86;99840.42;1785245;78;21161;-64
2021/01/15 09:07:54;;;;;;;14.28;7.00;;;;;;;-2.18;85.80;99826.41;1837932;76;22317;-62
2021/01/15 09:10:21;;;;;;;14.15;6.87;;;;;;;-2.31;84.92;99835.70;1799813;78;21071;-64
2021/01/15 09:12:49;;;;;;;12.73;5.90;;;;;;;-2.32;85.43;99834.00;1802549;77;21450;-62
2021/01/15 09:15:23;;;;;;;12.18;6.58;;;;;;;-2.45;84.25;99832.20;1748159;80;21614;-62
2021/01/15 09:17:50;;;;;;;9.28;4.78;;;;;;;-2.42;85.26;99833.49;1744539;81;21037;-63
2021/01/15 09:20:18;;;;;;;7.53;4.30;;;;;;;-2.34;85.24;99843.35;1756472;80;21088;-62
2021/01/15 09:22:46;;;;;;;6.17;3.77;;;;;;;-2.19;84.96;99846.00;1768059;80;21170;-62
2021/01/15 09:25:16;;;;;;;6.47;3.95;;;;;;;-1.90;85.68;99847.89;1763555;79;21407;-61
2021/01/15 09:27:45;;;;;;;10.18;5.80;;;;;;;-1.84;84.86;99846.63;1763319;80;21195;-62
2021/01/15 09:30:15;;;;;;;19.37;6.85;;;;;;;-2.01;84.48;99841.86;1732612;81;20996;-62
2021/01/15 09:32:45;;;;;;;12.18;5.97;;;;;;;-2.20;83.91;99863.48;1729543;81;21234;-63
2021/01/15 09:35:19;;;;;;;10.08;5.58;;;;;;;-2.33;84.91;99852.30;1732769;81;20977;-61
2021/01/15 09:37:46;;;;;;;13.30;7.47;;;;;;;-2.31;84.52;99853.60;1730921;81;21208;-62
2021/01/15 09:40:16;;;;;;;6.95;4.42;;;;;;;-2.26;85.53;99851.94;1729869;81;21251;-63
2021/01/15 09:42:49;;;;;;;8.65;3.90;;;;;;;-2.12;86.14;99855.44;1731030;81;21692;-62
2021/01/15 09:45:16;;;;;;;10.43;4.00;;;;;;;-1.90;86.56;99855.57;1728440;81;21702;-62
2021/01/15 09:47:46;;;;;;;9.95;4.85;;;;;;;-1.72;85.98;99847.96;1732908;81;21234;-62
2021/01/15 09:50:14;;;;;;;5.40;4.12;;;;;;;-1.74;85.27;99859.04;1736041;80;22034;-62
2021/01/15 09:52:41;;;;;;;7.72;4.60;;;;;;;-1.77;85.59;99850.92;1733188;81;21036;-62
2021/01/15 09:55:10;;;;;;;8.13;5.00;;;;;;;-1.82;85.68;99858.99;1727983;81;21198;-62
2021/01/15 09:57:43;;;;;;;9.60;4.87;;;;;;;-1.90;85.70;99858.13;1746971;79;21262;-62
2021/01/15 10:00:08;;;;;;;7.97;4.20;;;;;;;-1.98;86.16;99859.78;1748373;81;21194;-61
2021/01/15 10:02:36;;;;;;;9.83;4.90;;;;;;;-2.22;86.04;99852.38;1759760;79;21207;-63
2021/01/15 10:05:04;;;;;;;9.15;3.98;;;;;;;-2.35;86.57;99854.41;1748176;79;21238;-62
2021/01/15 10:07:31;;;;;;;9.30;4.42;;;;;;;-2.45;86.36;99852.65;1753239;80;21124;-62
2021/01/15 10:09:58;;;;;;;7.12;4.05;;;;;;;-2.60;86.58;99856.80;1758598;80;20982;-62
2021/01/15 10:12:25;;;;;;;8.55;4.30;;;;;;;-2.74;86.57;99857.11;1756224;80;21191;-62
2021/01/15 10:14:54;;;;;;;8.33;5.08;;;;;;;-2.77;86.89;99860.92;1762102;80;21018;-62
2021/01/15 10:17:21;;;;;;;6.92;4.75;;;;;;;-2.73;87.02;99867.77;1760903;80;21645;-63
2021/01/15 10:19:48;;;;;;;13.30;6.60;;;;;;;-2.64;87.18;99856.75;1757267;80;21666;-62
2021/01/15 10:22:15;;;;;;;12.88;7.25;;;;;;;-2.53;87.26;99852.16;1738824;80;21041;-62
2021/01/15 10:24:42;;;;;;;16.35;7.33;;;;;;;-2.38;87.09;99858.23;1758906;80;21195;-63
2021/01/15 10:27:09;;;;;;;14.35;6.55;;;;;;;-2.32;86.93;99857.02;1756150;80;21215;-62
2021/01/15 10:29:37;;;;;;;12.78;6.05;;;;;;;-2.25;87.08;99858.75;1757582;80;21120;-62
2021/01/15 10:32:04;;;;;;;10.90;5.72;;;;;;;-2.28;86.79;99853.62;1755586;80;21623;-62
2021/01/15 10:34:31;;;;;;;11.30;4.95;;;;;;;-2.32;86.84;99859.58;1756412;80;21053;-62
2021/01/15 10:36:58;;;;;;;13.00;5.20;;;;;;;-2.22;87.34;99851.09;1757120;80;21599;-62
2021/01/15 10:39:25;;;;;;;11.60;5.87;;;;;;;-2.15;86.76;99847.74;1764150;80;21222;-63
2021/01/15 10:41:52;;;;;;;11.57;5.47;;;;;;;-2.20;86.74;99857.09;1755226;80;21144;-63
2021/01/15 10:44:21;;;;;;;12.58;5.78;;;;;;;-2.18;86.99;99859.24;1759637;80;21603;-62
2021/01/15 10:46:51;;;;;;;11.65;5.70;;;;;;;-2.17;86.86;99860.94;1762874;80;21602;-63
2021/01/15 10:49:21;;;;;;;11.30;6.15;;;;;;;-2.26;86.58;99860.45;1762176;80;21203;-63
2021/01/15 10:51:55;;;;;;;11.33;5.72;;;;;;;-2.43;86.53;99872.28;1761640;80;21207;-63
2021/01/15 10:54:23;;;;;;;6.70;4.92;;;;;;;-2.56;86.91;99873.86;1761294;80;21148;-63
2021/01/15 10:56:53;;;;;;;8.98;5.50;;;;;;;-2.75;87.03;99877.11;1764017;80;21084;-63
2021/01/15 10:59:22;;;;;;;9.45;4.75;;;;;;;-2.84;87.43;99877.03;1761704;80;21077;-64
2021/01/15 11:01:51;;;;;;;9.28;4.85;;;;;;;-2.84;87.67;99864.25;1754023;80;21215;-62
2021/01/15 11:04:21;;;;;;;8.75;5.15;;;;;;;-2.84;87.67;99865.53;1764326;80;21211;-64
2021/01/15 11:06:54;;;;;;;9.78;5.35;;;;;;;-2.82;87.69;99871.09;1755719;80;21172;-63
2021/01/15 11:09:40;;;;;;;9.90;5.25;;;;;;;-2.74;87.75;99860.95;1739074;81;21597;-64
2021/01/15 11:12:08;;;;;;;12.40;5.75;;;;;;;-2.65;87.81;99875.08;1742457;81;21571;-63
2021/01/15 11:14:38;;;;;;;9.33;5.83;;;;;;;-2.65;87.60;99866.13;1742255;79;21213;-63
2021/01/15 11:17:05;;;;;;;10.72;6.03;;;;;;;-2.67;87.68;99871.64;1737277;81;22171;-63
2021/01/15 11:19:33;;;;;;;9.80;5.78;;;;;;;-2.56;87.80;99875.57;1739759;80;20981;-63
2021/01/15 11:22:00;;;;;;;9.85;6.15;;;;;;;-2.54;87.61;99869.63;1743679;80;21128;-63
2021/01/15 11:24:27;;;;;;;8.05;5.25;;;;;;;-2.54;87.31;99861.95;1745085;81;21607;-63
2021/01/15 11:26:55;;;;;;;9.35;6.03;;;;;;;-2.47;87.25;99864.98;1738091;81;21176;-63
2021/01/15 11:29:22;;;;;;;8.83;5.90;;;;;;;-2.36;87.25;99862.94;1741063;81;21636;-65
2021/01/15 11:31:50;;;;;;;8.60;5.47;;;;;;;-2.15;87.25;99856.70;1737139;80;25013;-64
2021/01/15 11:34:18;;;;;;;;;;;;;;;-1.96;87.37;99851.67;1743919;81;21053;-63
2021/01/15 11:36:48;;;;;;;8.00;5.28;;;;;;;-1.78;86.95;99854.34;1746802;80;20289;-64
2021/01/15 11:39:14;;;;;;;9.60;6.15;;;;;;;-1.77;87.02;99857.75;1742236;81;21199;-64
2021/01/15 11:41:42;;;;;;;;;;;;;;;-1.66;86.78;99853.10;1745828;81;21566;-64
2021/01/15 11:44:10;;;;;;;;;;;;;;;-1.62;86.69;99849.72;1745290;80;20325;-63
2021/01/15 11:46:38;;;;;;;8.00;4.50;;;;;;;-1.75;86.03;99859.90;1743790;81;20153;-64
2021/01/15 11:49:05;;;;;;;9.15;4.40;;;;;;;-1.91;86.45;99857.67;1752721;79;21570;-64
2021/01/15 11:51:33;;;;;;;40.73;16.55;;;;;;;-2.11;86.26;99869.92;1767416;80;21193;-63
2021/01/15 11:54:00;;;;;;;26.50;10.38;;;;;;;-2.22;86.82;99858.77;1738584;81;22259;-63
2021/01/15 11:56:28;;;;;;;17.15;9.23;;;;;;;-2.33;86.80;99868.07;1741951;80;24892;-63
2021/01/15 11:58:56;;;;;;;;;;;;;;;-2.39;87.25;99868.03;1737890;80;21171;-62
2021/01/15 12:01:23;;;;;;;14.75;7.65;;;;;;;-2.45;87.06;99865.44;1740136;81;20980;-62